Flight Track Log - Related Links

Times and Time Zones

All times are in EDT time to prevent confusion due to time zone crossing. See the N40838 flight status page for this flight to view local times or setup timezone preferences in your user account.

Time Position Orientation Groundspeed Altitude Reporting Facility
EDT Latitude Longitude Course Direction KTS MPH feet Rate Location/Type
Sun 12:13:15 PM 30.1556 -82.6211 85° East 100 115 1,600  Level Jacksonville Center
Sun 12:14:15 PM 30.1597 -82.5994 77° East 88 101 2,100 500 Climbing Jacksonville Center
Sun 12:15:15 PM 30.1617 -82.5778 84° East 75 86 2,600 450 Climbing Jacksonville Center
Sun 12:16:15 PM 30.1639 -82.5561 83° East 70 81 3,000 200 Climbing Jacksonville Center
Sun 12:17:15 PM 30.1678 -82.5275 81° East 64 74 3,000 -50 Level Jacksonville Center
Sun 12:18:00 PM 30.1604 -82.5724 85° East  Level FlightAware Approximate
Sun 12:18:15 PM 30.1719 -82.4986 81° East 75 86 2,900  Level Jacksonville Center
Sun 12:19:15 PM 30.1719 -82.4719 90° East 80 92 2,900 50 Level Jacksonville Center
Sun 12:20:15 PM 30.1717 -82.4481 91° East 80 92 3,000 100 Climbing Jacksonville Center
Sun 12:21:15 PM 30.1758 -82.4192 81° East 85 98 3,100  Climbing Jacksonville Center
Sun 12:22:15 PM 30.1819 -82.3903 76° East 85 98 3,000 -51 Descending Jacksonville Center
Sun 12:23:13 PM 30.1881 -82.3664 74° East 89 102 3,000 50 Level Jacksonville Center
Sun 12:24:15 PM 30.1986 -82.3375 67° East 85 98 3,100  Climbing Jacksonville Center
Sun 12:25:15 PM 30.2006 -82.3086 86° East 85 98 3,000 -100 Descending Jacksonville Center
Sun 12:26:15 PM 30.1878 -82.2822 119° Southeast 85 98 2,900 -100 Descending Jacksonville Center
Sun 12:27:15 PM 30.1753 -82.2631 127° Southeast 85 98 2,800 -97 Descending Jacksonville Center
Sun 12:27:17 PM 30.1753 -82.2631 127° Southeast 78 90 2,800 211 Level Jacksonville Center
Sun 12:28:12 PM 30.1667 -82.2392 113° Southeast 82 94 3,000 52 Climbing Jacksonville Center
Sun 12:29:13 PM 30.1583 -82.2150 112° Southeast 83 96 2,900 -49 Descending Jacksonville Center
Sun 12:30:15 PM 30.1539 -82.1864 100° East 80 92 2,900  Level Jacksonville Center
Sun 12:31:15 PM 30.1414 -82.1672 127° Southeast 78 90 2,900 50 Level Jacksonville Center
Sun 12:32:16 PM 30.1328 -82.1433 113° Southeast 83 96 3,000 -43 Climbing Jacksonville Center
Sun 12:33:35 PM 30.1242 -82.1072 105° East 88 101 2,800 -300 Descending Jacksonville Center
Sun 12:34:36 PM 30.1136 -82.0786 113° Southeast 97 112 2,300 -393 Descending Jacksonville Center
Sun 12:35:37 PM 30.1031 -82.0547 117° Southeast 84 97 2,000 -164 Descending Jacksonville Center
Sun 12:36:26 PM 30.0986 -82.0331 103° East 85 98 2,000  Level Jacksonville Center
Sun 12:37:27 PM 30.0900 -82.0044 109° East 86 99 2,000 -52 Level Jacksonville Center
Sun 12:38:22 PM 30.0794 -81.9828 119° Southeast 81 93 1,900 -47 Descending Jacksonville Center
Sun 12:39:35 PM 30.0689 -81.9542 113° Southeast 81 93 1,900  Level Jacksonville Center
Sun 12:40:24 PM 30.0647 -81.9372 106° East 76 87 1,900 55 Level Jacksonville Center
Sun 12:41:25 PM 30.0581 -81.9133 108° East 72 83 2,000 47 Climbing Jacksonville Center
Sun 12:42:31 PM 30.0558 -81.8822 95° East 89 102 2,000 -141 Level Jacksonville Center
Sun 12:43:33 PM 30.0808 -81.8797 North 102 117 1,700 -93 Descending Jacksonville Center
Sun 12:44:40 PM 30.1081 -81.8794 North 76 87 1,800 -189 Climbing Jacksonville Center
Sun 12:45:40 PM 30.1350 -81.8767 North 121 139 1,300 -496 Descending Jacksonville Center
Sun 12:46:41 PM 30.1622 -81.8739 North 101 116 800 -410 Descending Jacksonville Center
Sun 12:47:37 PM 30.1853 -81.8761 355° North 103 119 500 -321 Descending Jacksonville Center
Sun 12:49:00 PM 30.2167 -81.8667 41° Northeast  Level FlightAware Approximate
Sun 12:56:00 PM 30.2188 -81.8772 41° Northeast  Level Estimated

Login

Don't have an account? Register now (free) for customized features, flight alerts, and more!